sensor_id;sensor_type;location;lat;lon;timestamp;P1;durP1;ratioP1;P2;durP2;ratioP2
9958;SDS011;5019;48.012;7.812;2022-12-07T00:01:09;14.10;;;6.23;;
9958;SDS011;5019;48.012;7.812;2022-12-07T00:03:35;14.80;;;7.60;;
9958;SDS011;5019;48.012;7.812;2022-12-07T00:06:02;12.23;;;7.00;;
9958;SDS011;5019;48.012;7.812;2022-12-07T00:08:28;9.43;;;7.10;;
9958;SDS011;5019;48.012;7.812;2022-12-07T00:10:55;10.67;;;6.87;;
9958;SDS011;5019;48.012;7.812;2022-12-07T00:13:21;11.27;;;8.40;;
9958;SDS011;5019;48.012;7.812;2022-12-07T00:15:47;10.30;;;7.03;;
9958;SDS011;5019;48.012;7.812;2022-12-07T00:18:13;14.10;;;7.50;;
9958;SDS011;5019;48.012;7.812;2022-12-07T00:20:39;14.70;;;7.67;;
9958;SDS011;5019;48.012;7.812;2022-12-07T00:23:05;13.87;;;7.73;;
9958;SDS011;5019;48.012;7.812;2022-12-07T00:25:31;13.73;;;7.27;;
9958;SDS011;5019;48.012;7.812;2022-12-07T00:27:57;17.30;;;8.97;;
9958;SDS011;5019;48.012;7.812;2022-12-07T00:30:23;20.57;;;8.20;;
9958;SDS011;5019;48.012;7.812;2022-12-07T00:32:49;11.37;;;5.70;;
9958;SDS011;5019;48.012;7.812;2022-12-07T00:35:15;15.13;;;8.70;;
9958;SDS011;5019;48.012;7.812;2022-12-07T00:37:41;10.97;;;5.90;;
9958;SDS011;5019;48.012;7.812;2022-12-07T00:40:07;14.93;;;8.40;;
9958;SDS011;5019;48.012;7.812;2022-12-07T00:42:33;13.03;;;6.73;;
9958;SDS011;5019;48.012;7.812;2022-12-07T00:44:59;16.23;;;8.17;;
9958;SDS011;5019;48.012;7.812;2022-12-07T00:47:25;17.90;;;7.73;;
9958;SDS011;5019;48.012;7.812;2022-12-07T00:49:51;12.47;;;7.10;;
9958;SDS011;5019;48.012;7.812;2022-12-07T00:52:17;14.57;;;7.23;;
9958;SDS011;5019;48.012;7.812;2022-12-07T00:54:43;18.00;;;8.30;;
9958;SDS011;5019;48.012;7.812;2022-12-07T00:57:09;19.77;;;9.07;;
9958;SDS011;5019;48.012;7.812;2022-12-07T00:59:35;11.73;;;7.13;;
9958;SDS011;5019;48.012;7.812;2022-12-07T01:02:01;13.77;;;8.13;;
9958;SDS011;5019;48.012;7.812;2022-12-07T01:04:27;10.43;;;5.83;;
9958;SDS011;5019;48.012;7.812;2022-12-07T01:06:54;14.90;;;8.37;;
9958;SDS011;5019;48.012;7.812;2022-12-07T01:09:20;12.13;;;7.97;;
9958;SDS011;5019;48.012;7.812;2022-12-07T01:11:46;13.27;;;8.30;;
9958;SDS011;5019;48.012;7.812;2022-12-07T01:14:12;11.47;;;6.67;;
9958;SDS011;5019;48.012;7.812;2022-12-07T01:16:38;15.83;;;8.20;;
9958;SDS011;5019;48.012;7.812;2022-12-07T01:19:05;12.47;;;6.67;;
9958;SDS011;5019;48.012;7.812;2022-12-07T01:21:32;15.10;;;6.30;;
9958;SDS011;5019;48.012;7.812;2022-12-07T01:24:00;8.70;;;6.13;;
9958;SDS011;5019;48.012;7.812;2022-12-07T01:26:27;11.97;;;7.00;;
9958;SDS011;5019;48.012;7.812;2022-12-07T01:28:53;15.67;;;8.70;;
9958;SDS011;5019;48.012;7.812;2022-12-07T01:31:20;13.80;;;7.23;;
9958;SDS011;5019;48.012;7.812;2022-12-07T01:33:48;21.00;;;9.07;;
9958;SDS011;5019;48.012;7.812;2022-12-07T01:36:15;19.73;;;8.47;;
9958;SDS011;5019;48.012;7.812;2022-12-07T01:38:43;17.50;;;8.90;;
9958;SDS011;5019;48.012;7.812;2022-12-07T01:41:09;13.23;;;7.30;;
9958;SDS011;5019;48.012;7.812;2022-12-07T01:43:35;11.70;;;6.30;;
9958;SDS011;5019;48.012;7.812;2022-12-07T01:46:02;13.70;;;8.23;;
9958;SDS011;5019;48.012;7.812;2022-12-07T01:48:38;21.87;;;8.73;;
9958;SDS011;5019;48.012;7.812;2022-12-07T01:51:07;13.47;;;7.37;;
9958;SDS011;5019;48.012;7.812;2022-12-07T01:53:35;12.07;;;8.50;;
9958;SDS011;5019;48.012;7.812;2022-12-07T01:56:01;16.80;;;9.03;;
9958;SDS011;5019;48.012;7.812;2022-12-07T01:58:27;11.70;;;7.07;;
9958;SDS011;5019;48.012;7.812;2022-12-07T02:00:53;19.80;;;8.80;;
9958;SDS011;5019;48.012;7.812;2022-12-07T02:03:24;17.27;;;8.10;;
9958;SDS011;5019;48.012;7.812;2022-12-07T02:05:52;11.83;;;7.63;;
9958;SDS011;5019;48.012;7.812;2022-12-07T02:08:19;11.57;;;7.03;;
9958;SDS011;5019;48.012;7.812;2022-12-07T02:10:45;11.90;;;7.90;;
9958;SDS011;5019;48.012;7.812;2022-12-07T02:18:17;17.67;;;7.73;;
9958;SDS011;5019;48.012;7.812;2022-12-07T02:20:55;15.67;;;6.23;;
9958;SDS011;5019;48.012;7.812;2022-12-07T02:23:33;14.40;;;6.60;;
9958;SDS011;5019;48.012;7.812;2022-12-07T02:29:01;6.13;;;4.50;;
9958;SDS011;5019;48.012;7.812;2022-12-07T02:31:32;8.13;;;6.20;;
9958;SDS011;5019;48.012;7.812;2022-12-07T02:34:04;5.77;;;5.27;;
9958;SDS011;5019;48.012;7.812;2022-12-07T02:36:34;6.40;;;3.70;;
9958;SDS011;5019;48.012;7.812;2022-12-07T02:39:08;15.50;;;6.53;;
9958;SDS011;5019;48.012;7.812;2022-12-07T02:41:40;7.00;;;5.50;;
9958;SDS011;5019;48.012;7.812;2022-12-07T02:44:10;7.77;;;4.73;;
9958;SDS011;5019;48.012;7.812;2022-12-07T02:46:42;12.23;;;6.40;;
9958;SDS011;5019;48.012;7.812;2022-12-07T02:49:08;14.30;;;6.20;;
9958;SDS011;5019;48.012;7.812;2022-12-07T02:51:38;6.37;;;5.73;;
9958;SDS011;5019;48.012;7.812;2022-12-07T02:54:08;11.03;;;5.90;;
9958;SDS011;5019;48.012;7.812;2022-12-07T03:07:05;9.23;;;6.27;;
9958;SDS011;5019;48.012;7.812;2022-12-07T03:09:33;12.70;;;5.83;;
9958;SDS011;5019;48.012;7.812;2022-12-07T03:12:21;5.87;;;4.70;;
9958;SDS011;5019;48.012;7.812;2022-12-07T03:14:56;9.30;;;6.10;;
9958;SDS011;5019;48.012;7.812;2022-12-07T03:17:25;17.90;;;8.33;;
9958;SDS011;5019;48.012;7.812;2022-12-07T03:19:53;13.07;;;5.87;;
9958;SDS011;5019;48.012;7.812;2022-12-07T03:22:20;12.77;;;7.60;;
9958;SDS011;5019;48.012;7.812;2022-12-07T03:24:49;12.70;;;6.90;;
9958;SDS011;5019;48.012;7.812;2022-12-07T03:27:34;14.30;;;7.10;;
9958;SDS011;5019;48.012;7.812;2022-12-07T03:30:03;13.43;;;7.50;;
9958;SDS011;5019;48.012;7.812;2022-12-07T03:32:31;13.80;;;7.00;;
9958;SDS011;5019;48.012;7.812;2022-12-07T03:35:17;9.73;;;4.47;;
9958;SDS011;5019;48.012;7.812;2022-12-07T03:42:41;16.27;;;5.70;;
9958;SDS011;5019;48.012;7.812;2022-12-07T03:45:07;14.07;;;6.30;;
9958;SDS011;5019;48.012;7.812;2022-12-07T03:52:59;8.70;;;4.83;;
9958;SDS011;5019;48.012;7.812;2022-12-07T03:55:32;9.57;;;6.27;;
9958;SDS011;5019;48.012;7.812;2022-12-07T03:58:04;11.80;;;7.67;;
9958;SDS011;5019;48.012;7.812;2022-12-07T04:00:31;5.80;;;4.67;;
9958;SDS011;5019;48.012;7.812;2022-12-07T04:02:57;7.83;;;5.33;;
9958;SDS011;5019;48.012;7.812;2022-12-07T04:05:23;11.83;;;5.27;;
9958;SDS011;5019;48.012;7.812;2022-12-07T04:07:49;7.63;;;5.20;;
9958;SDS011;5019;48.012;7.812;2022-12-07T04:10:16;7.03;;;4.70;;
9958;SDS011;5019;48.012;7.812;2022-12-07T04:12:42;9.43;;;5.67;;
9958;SDS011;5019;48.012;7.812;2022-12-07T04:15:08;10.83;;;6.23;;
9958;SDS011;5019;48.012;7.812;2022-12-07T04:17:34;9.07;;;5.17;;
9958;SDS011;5019;48.012;7.812;2022-12-07T04:20:00;8.03;;;5.87;;
9958;SDS011;5019;48.012;7.812;2022-12-07T04:22:26;13.23;;;6.43;;
9958;SDS011;5019;48.012;7.812;2022-12-07T04:24:52;10.03;;;6.20;;
9958;SDS011;5019;48.012;7.812;2022-12-07T04:27:18;10.60;;;4.90;;
9958;SDS011;5019;48.012;7.812;2022-12-07T04:29:44;8.73;;;5.60;;
9958;SDS011;5019;48.012;7.812;2022-12-07T04:32:10;8.90;;;6.00;;
9958;SDS011;5019;48.012;7.812;2022-12-07T04:34:36;13.17;;;5.77;;
9958;SDS011;5019;48.012;7.812;2022-12-07T04:37:02;9.07;;;5.80;;
9958;SDS011;5019;48.012;7.812;2022-12-07T04:39:28;10.63;;;6.60;;
9958;SDS011;5019;48.012;7.812;2022-12-07T04:41:55;12.60;;;6.23;;
9958;SDS011;5019;48.012;7.812;2022-12-07T04:44:21;11.97;;;6.33;;
9958;SDS011;5019;48.012;7.812;2022-12-07T04:46:48;9.10;;;6.70;;
9958;SDS011;5019;48.012;7.812;2022-12-07T04:49:14;13.40;;;6.40;;
9958;SDS011;5019;48.012;7.812;2022-12-07T04:51:40;11.90;;;6.70;;
9958;SDS011;5019;48.012;7.812;2022-12-07T04:54:06;10.47;;;6.20;;
9958;SDS011;5019;48.012;7.812;2022-12-07T04:56:32;9.53;;;6.00;;
9958;SDS011;5019;48.012;7.812;2022-12-07T04:59:00;12.60;;;6.03;;
9958;SDS011;5019;48.012;7.812;2022-12-07T05:01:26;9.10;;;6.10;;
9958;SDS011;5019;48.012;7.812;2022-12-07T05:03:52;10.63;;;6.13;;
9958;SDS011;5019;48.012;7.812;2022-12-07T05:06:18;7.50;;;5.20;;
9958;SDS011;5019;48.012;7.812;2022-12-07T05:08:44;9.50;;;5.23;;
9958;SDS011;5019;48.012;7.812;2022-12-07T05:11:10;5.10;;;3.70;;
9958;SDS011;5019;48.012;7.812;2022-12-07T05:13:57;6.23;;;4.90;;
9958;SDS011;5019;48.012;7.812;2022-12-07T05:16:23;9.47;;;4.00;;
9958;SDS011;5019;48.012;7.812;2022-12-07T05:18:49;11.80;;;5.10;;
9958;SDS011;5019;48.012;7.812;2022-12-07T05:21:15;7.23;;;4.40;;
9958;SDS011;5019;48.012;7.812;2022-12-07T05:23:41;6.90;;;3.20;;
9958;SDS011;5019;48.012;7.812;2022-12-07T05:26:07;5.97;;;3.70;;
9958;SDS011;5019;48.012;7.812;2022-12-07T05:28:33;7.07;;;3.73;;
9958;SDS011;5019;48.012;7.812;2022-12-07T05:30:59;6.23;;;4.60;;
9958;SDS011;5019;48.012;7.812;2022-12-07T05:33:25;4.90;;;4.30;;
9958;SDS011;5019;48.012;7.812;2022-12-07T05:35:51;3.77;;;3.40;;
9958;SDS011;5019;48.012;7.812;2022-12-07T05:38:17;6.60;;;3.73;;
9958;SDS011;5019;48.012;7.812;2022-12-07T05:40:43;7.60;;;3.63;;
9958;SDS011;5019;48.012;7.812;2022-12-07T05:43:09;3.60;;;3.30;;
9958;SDS011;5019;48.012;7.812;2022-12-07T05:45:35;4.20;;;3.13;;
9958;SDS011;5019;48.012;7.812;2022-12-07T05:48:01;7.33;;;3.50;;
9958;SDS011;5019;48.012;7.812;2022-12-07T05:50:28;4.30;;;2.90;;
9958;SDS011;5019;48.012;7.812;2022-12-07T05:52:54;6.97;;;3.30;;
9958;SDS011;5019;48.012;7.812;2022-12-07T05:55:20;8.30;;;4.13;;
9958;SDS011;5019;48.012;7.812;2022-12-07T05:57:46;11.93;;;3.87;;
9958;SDS011;5019;48.012;7.812;2022-12-07T06:00:31;3.40;;;3.20;;
9958;SDS011;5019;48.012;7.812;2022-12-07T06:02:57;4.33;;;3.90;;
9958;SDS011;5019;48.012;7.812;2022-12-07T06:05:23;5.47;;;3.97;;
9958;SDS011;5019;48.012;7.812;2022-12-07T06:07:49;6.50;;;5.13;;
9958;SDS011;5019;48.012;7.812;2022-12-07T06:10:15;10.47;;;4.20;;
9958;SDS011;5019;48.012;7.812;2022-12-07T06:12:41;6.60;;;5.07;;
9958;SDS011;5019;48.012;7.812;2022-12-07T06:15:10;12.23;;;5.57;;
9958;SDS011;5019;48.012;7.812;2022-12-07T06:17:38;8.53;;;6.00;;
9958;SDS011;5019;48.012;7.812;2022-12-07T06:20:05;6.27;;;3.93;;
9958;SDS011;5019;48.012;7.812;2022-12-07T06:22:31;6.70;;;5.73;;
9958;SDS011;5019;48.012;7.812;2022-12-07T06:24:57;5.13;;;4.30;;
9958;SDS011;5019;48.012;7.812;2022-12-07T06:27:23;6.20;;;4.50;;
9958;SDS011;5019;48.012;7.812;2022-12-07T06:29:49;6.90;;;3.80;;
9958;SDS011;5019;48.012;7.812;2022-12-07T06:32:15;5.77;;;3.40;;
9958;SDS011;5019;48.012;7.812;2022-12-07T06:34:41;7.57;;;4.40;;
9958;SDS011;5019;48.012;7.812;2022-12-07T06:37:07;7.40;;;4.03;;
9958;SDS011;5019;48.012;7.812;2022-12-07T06:39:33;10.23;;;6.47;;
9958;SDS011;5019;48.012;7.812;2022-12-07T06:41:59;9.27;;;5.93;;
9958;SDS011;5019;48.012;7.812;2022-12-07T06:44:25;10.23;;;6.30;;
9958;SDS011;5019;48.012;7.812;2022-12-07T06:46:51;8.03;;;6.47;;
9958;SDS011;5019;48.012;7.812;2022-12-07T06:49:18;8.30;;;6.17;;
9958;SDS011;5019;48.012;7.812;2022-12-07T06:51:44;12.43;;;8.80;;
9958;SDS011;5019;48.012;7.812;2022-12-07T06:54:10;15.60;;;8.20;;
9958;SDS011;5019;48.012;7.812;2022-12-07T06:56:36;9.40;;;5.70;;
9958;SDS011;5019;48.012;7.812;2022-12-07T06:59:02;6.67;;;5.87;;
9958;SDS011;5019;48.012;7.812;2022-12-07T07:01:30;7.20;;;5.00;;
9958;SDS011;5019;48.012;7.812;2022-12-07T07:03:56;10.00;;;4.60;;
9958;SDS011;5019;48.012;7.812;2022-12-07T07:06:22;7.97;;;5.60;;
9958;SDS011;5019;48.012;7.812;2022-12-07T07:08:48;15.57;;;5.47;;
9958;SDS011;5019;48.012;7.812;2022-12-07T07:11:14;10.37;;;7.50;;
9958;SDS011;5019;48.012;7.812;2022-12-07T07:13:40;8.20;;;6.00;;
9958;SDS011;5019;48.012;7.812;2022-12-07T07:16:06;10.87;;;6.57;;
9958;SDS011;5019;48.012;7.812;2022-12-07T07:18:32;10.50;;;5.57;;
9958;SDS011;5019;48.012;7.812;2022-12-07T07:20:58;7.53;;;5.20;;
9958;SDS011;5019;48.012;7.812;2022-12-07T07:23:25;7.37;;;4.60;;
9958;SDS011;5019;48.012;7.812;2022-12-07T07:25:51;5.60;;;4.20;;
9958;SDS011;5019;48.012;7.812;2022-12-07T07:28:17;12.03;;;6.53;;
9958;SDS011;5019;48.012;7.812;2022-12-07T07:30:43;12.20;;;7.07;;
9958;SDS011;5019;48.012;7.812;2022-12-07T07:33:09;11.50;;;5.87;;
9958;SDS011;5019;48.012;7.812;2022-12-07T07:35:36;14.67;;;7.07;;
9958;SDS011;5019;48.012;7.812;2022-12-07T07:38:02;7.73;;;4.83;;
9958;SDS011;5019;48.012;7.812;2022-12-07T07:40:28;8.90;;;4.80;;
9958;SDS011;5019;48.012;7.812;2022-12-07T07:42:54;12.50;;;6.50;;
9958;SDS011;5019;48.012;7.812;2022-12-07T07:45:21;8.47;;;5.40;;
9958;SDS011;5019;48.012;7.812;2022-12-07T07:47:47;11.60;;;5.47;;
9958;SDS011;5019;48.012;7.812;2022-12-07T07:50:13;9.60;;;5.80;;
9958;SDS011;5019;48.012;7.812;2022-12-07T07:52:39;5.67;;;4.53;;
9958;SDS011;5019;48.012;7.812;2022-12-07T07:55:06;7.60;;;5.90;;
9958;SDS011;5019;48.012;7.812;2022-12-07T07:57:35;9.40;;;4.60;;
9958;SDS011;5019;48.012;7.812;2022-12-07T08:00:05;8.33;;;5.30;;
9958;SDS011;5019;48.012;7.812;2022-12-07T08:02:32;5.73;;;4.87;;
9958;SDS011;5019;48.012;7.812;2022-12-07T08:04:58;8.00;;;4.80;;
9958;SDS011;5019;48.012;7.812;2022-12-07T08:07:24;12.43;;;6.17;;
9958;SDS011;5019;48.012;7.812;2022-12-07T08:09:50;10.53;;;6.87;;
9958;SDS011;5019;48.012;7.812;2022-12-07T08:12:17;6.20;;;4.70;;
9958;SDS011;5019;48.012;7.812;2022-12-07T08:14:43;10.43;;;5.23;;
9958;SDS011;5019;48.012;7.812;2022-12-07T08:17:09;15.47;;;6.90;;
9958;SDS011;5019;48.012;7.812;2022-12-07T08:19:35;11.37;;;5.70;;
9958;SDS011;5019;48.012;7.812;2022-12-07T08:22:01;6.43;;;5.03;;
9958;SDS011;5019;48.012;7.812;2022-12-07T08:24:27;16.17;;;6.47;;
9958;SDS011;5019;48.012;7.812;2022-12-07T08:26:53;9.07;;;4.27;;
9958;SDS011;5019;48.012;7.812;2022-12-07T08:29:19;15.03;;;4.50;;
9958;SDS011;5019;48.012;7.812;2022-12-07T08:31:45;5.13;;;4.60;;
9958;SDS011;5019;48.012;7.812;2022-12-07T08:34:12;10.30;;;4.17;;
9958;SDS011;5019;48.012;7.812;2022-12-07T08:36:39;9.23;;;4.00;;
9958;SDS011;5019;48.012;7.812;2022-12-07T08:39:05;5.03;;;3.63;;
9958;SDS011;5019;48.012;7.812;2022-12-07T08:41:31;4.37;;;3.67;;
9958;SDS011;5019;48.012;7.812;2022-12-07T08:43:57;4.50;;;3.90;;
9958;SDS011;5019;48.012;7.812;2022-12-07T08:46:42;5.57;;;4.47;;
9958;SDS011;5019;48.012;7.812;2022-12-07T08:49:11;7.77;;;4.10;;
9958;SDS011;5019;48.012;7.812;2022-12-07T08:51:39;6.60;;;4.90;;
9958;SDS011;5019;48.012;7.812;2022-12-07T08:54:06;9.67;;;4.73;;
9958;SDS011;5019;48.012;7.812;2022-12-07T08:56:33;12.43;;;4.97;;
9958;SDS011;5019;48.012;7.812;2022-12-07T08:58:59;5.00;;;4.30;;
9958;SDS011;5019;48.012;7.812;2022-12-07T09:01:25;7.67;;;5.03;;
9958;SDS011;5019;48.012;7.812;2022-12-07T09:03:52;7.27;;;4.17;;
9958;SDS011;5019;48.012;7.812;2022-12-07T09:06:18;8.50;;;5.60;;
9958;SDS011;5019;48.012;7.812;2022-12-07T09:08:46;7.17;;;5.50;;
9958;SDS011;5019;48.012;7.812;2022-12-07T09:11:13;7.80;;;4.70;;
9958;SDS011;5019;48.012;7.812;2022-12-07T09:13:39;7.67;;;3.70;;
9958;SDS011;5019;48.012;7.812;2022-12-07T09:16:05;7.90;;;3.80;;
9958;SDS011;5019;48.012;7.812;2022-12-07T09:18:31;6.30;;;4.60;;
9958;SDS011;5019;48.012;7.812;2022-12-07T09:20:57;9.50;;;4.97;;
9958;SDS011;5019;48.012;7.812;2022-12-07T09:23:23;7.60;;;4.27;;
9958;SDS011;5019;48.012;7.812;2022-12-07T09:25:49;4.83;;;3.90;;
9958;SDS011;5019;48.012;7.812;2022-12-07T09:28:15;6.80;;;4.50;;
9958;SDS011;5019;48.012;7.812;2022-12-07T09:30:47;4.73;;;2.97;;
9958;SDS011;5019;48.012;7.812;2022-12-07T09:33:14;4.50;;;4.00;;
9958;SDS011;5019;48.012;7.812;2022-12-07T09:35:49;4.27;;;3.20;;
9958;SDS011;5019;48.012;7.812;2022-12-07T09:38:15;5.97;;;3.40;;
9958;SDS011;5019;48.012;7.812;2022-12-07T09:40:42;5.70;;;4.70;;
9958;SDS011;5019;48.012;7.812;2022-12-07T09:43:15;7.63;;;4.73;;
9958;SDS011;5019;48.012;7.812;2022-12-07T09:45:41;6.03;;;3.50;;
9958;SDS011;5019;48.012;7.812;2022-12-07T09:48:17;5.60;;;2.73;;
9958;SDS011;5019;48.012;7.812;2022-12-07T09:50:44;5.37;;;4.10;;
9958;SDS011;5019;48.012;7.812;2022-12-07T09:53:53;5.30;;;4.07;;
9958;SDS011;5019;48.012;7.812;2022-12-07T09:55:59;6.63;;;4.03;;
9958;SDS011;5019;48.012;7.812;2022-12-07T09:58:27;5.57;;;3.60;;
9958;SDS011;5019;48.012;7.812;2022-12-07T10:00:56;5.37;;;3.20;;
9958;SDS011;5019;48.012;7.812;2022-12-07T10:03:22;6.70;;;3.63;;
9958;SDS011;5019;48.012;7.812;2022-12-07T10:05:49;9.10;;;3.70;;
9958;SDS011;5019;48.012;7.812;2022-12-07T10:08:17;4.73;;;4.23;;
9958;SDS011;5019;48.012;7.812;2022-12-07T10:10:43;3.33;;;3.03;;
9958;SDS011;5019;48.012;7.812;2022-12-07T10:15:55;5.00;;;4.27;;
9958;SDS011;5019;48.012;7.812;2022-12-07T10:18:28;6.07;;;4.47;;
9958;SDS011;5019;48.012;7.812;2022-12-07T10:23:37;7.47;;;3.90;;
9958;SDS011;5019;48.012;7.812;2022-12-07T10:26:38;4.37;;;3.97;;
9958;SDS011;5019;48.012;7.812;2022-12-07T10:28:56;6.17;;;3.47;;
9958;SDS011;5019;48.012;7.812;2022-12-07T10:31:24;5.77;;;3.20;;
9958;SDS011;5019;48.012;7.812;2022-12-07T10:33:54;5.17;;;4.30;;
9958;SDS011;5019;48.012;7.812;2022-12-07T10:38:48;6.00;;;3.70;;
9958;SDS011;5019;48.012;7.812;2022-12-07T10:41:14;5.27;;;3.93;;
9958;SDS011;5019;48.012;7.812;2022-12-07T10:43:48;4.97;;;3.93;;
9958;SDS011;5019;48.012;7.812;2022-12-07T10:51:37;3.33;;;3.00;;
9958;SDS011;5019;48.012;7.812;2022-12-07T10:54:12;3.80;;;2.97;;
9958;SDS011;5019;48.012;7.812;2022-12-07T10:56:50;6.43;;;3.87;;
9958;SDS011;5019;48.012;7.812;2022-12-07T10:59:37;5.13;;;3.23;;
9958;SDS011;5019;48.012;7.812;2022-12-07T11:05:07;4.07;;;3.63;;
9958;SDS011;5019;48.012;7.812;2022-12-07T11:18:07;4.37;;;3.23;;
9958;SDS011;5019;48.012;7.812;2022-12-07T11:20:44;4.70;;;3.37;;
9958;SDS011;5019;48.012;7.812;2022-12-07T11:28:29;5.80;;;4.20;;
9958;SDS011;5019;48.012;7.812;2022-12-07T11:31:18;5.63;;;3.77;;
9958;SDS011;5019;48.012;7.812;2022-12-07T11:33:47;2.03;;;1.90;;
9958;SDS011;5019;48.012;7.812;2022-12-07T11:39:04;3.30;;;2.67;;
9958;SDS011;5019;48.012;7.812;2022-12-07T11:41:31;3.50;;;2.43;;
9958;SDS011;5019;48.012;7.812;2022-12-07T11:44:05;5.37;;;3.63;;
9958;SDS011;5019;48.012;7.812;2022-12-07T11:46:48;3.60;;;2.70;;
9958;SDS011;5019;48.012;7.812;2022-12-07T11:51:57;3.67;;;2.57;;
9958;SDS011;5019;48.012;7.812;2022-12-07T11:54:26;3.50;;;3.20;;
9958;SDS011;5019;48.012;7.812;2022-12-07T11:56:54;4.20;;;3.70;;
9958;SDS011;5019;48.012;7.812;2022-12-07T11:59:31;3.57;;;2.97;;
9958;SDS011;5019;48.012;7.812;2022-12-07T12:04:33;8.40;;;4.67;;
9958;SDS011;5019;48.012;7.812;2022-12-07T12:07:01;8.00;;;3.87;;
9958;SDS011;5019;48.012;7.812;2022-12-07T12:09:35;4.90;;;3.50;;
9958;SDS011;5019;48.012;7.812;2022-12-07T12:22:52;2.37;;;2.17;;
9958;SDS011;5019;48.012;7.812;2022-12-07T12:27:45;3.03;;;2.47;;
9958;SDS011;5019;48.012;7.812;2022-12-07T12:30:35;3.80;;;3.00;;
9958;SDS011;5019;48.012;7.812;2022-12-07T12:33:03;5.00;;;2.80;;
9958;SDS011;5019;48.012;7.812;2022-12-07T12:35:31;5.00;;;3.00;;
9958;SDS011;5019;48.012;7.812;2022-12-07T12:38:40;5.00;;;2.80;;
9958;SDS011;5019;48.012;7.812;2022-12-07T12:40:47;6.90;;;3.00;;
9958;SDS011;5019;48.012;7.812;2022-12-07T12:48:42;3.20;;;2.90;;
9958;SDS011;5019;48.012;7.812;2022-12-07T12:51:54;5.00;;;3.00;;
9958;SDS011;5019;48.012;7.812;2022-12-07T12:54:03;3.23;;;2.93;;
9958;SDS011;5019;48.012;7.812;2022-12-07T12:56:40;3.03;;;2.63;;
9958;SDS011;5019;48.012;7.812;2022-12-07T13:01:43;3.87;;;2.53;;
9958;SDS011;5019;48.012;7.812;2022-12-07T13:06:54;2.70;;;2.50;;
9958;SDS011;5019;48.012;7.812;2022-12-07T13:09:21;4.03;;;2.83;;
9958;SDS011;5019;48.012;7.812;2022-12-07T13:11:48;2.63;;;2.30;;
9958;SDS011;5019;48.012;7.812;2022-12-07T13:17:00;2.53;;;2.30;;
9958;SDS011;5019;48.012;7.812;2022-12-07T13:28:47;3.53;;;2.40;;
9958;SDS011;5019;48.012;7.812;2022-12-07T13:30:43;5.27;;;2.50;;
9958;SDS011;5019;48.012;7.812;2022-12-07T13:33:10;6.40;;;2.47;;
9958;SDS011;5019;48.012;7.812;2022-12-07T13:35:37;2.33;;;1.77;;
9958;SDS011;5019;48.012;7.812;2022-12-07T13:38:22;5.20;;;3.17;;
9958;SDS011;5019;48.012;7.812;2022-12-07T13:43:58;3.10;;;2.40;;
9958;SDS011;5019;48.012;7.812;2022-12-07T13:46:26;2.77;;;2.57;;
9958;SDS011;5019;48.012;7.812;2022-12-07T13:48:55;5.00;;;2.67;;
9958;SDS011;5019;48.012;7.812;2022-12-07T13:51:23;2.97;;;2.77;;
9958;SDS011;5019;48.012;7.812;2022-12-07T13:53:51;5.10;;;3.00;;
9958;SDS011;5019;48.012;7.812;2022-12-07T13:56:17;3.77;;;3.10;;
9958;SDS011;5019;48.012;7.812;2022-12-07T13:58:43;3.73;;;2.00;;
9958;SDS011;5019;48.012;7.812;2022-12-07T14:01:09;2.23;;;2.10;;
9958;SDS011;5019;48.012;7.812;2022-12-07T14:03:35;1.97;;;1.87;;
9958;SDS011;5019;48.012;7.812;2022-12-07T14:06:06;2.00;;;1.80;;
9958;SDS011;5019;48.012;7.812;2022-12-07T14:08:33;2.90;;;1.73;;
9958;SDS011;5019;48.012;7.812;2022-12-07T14:10:59;3.50;;;2.27;;
9958;SDS011;5019;48.012;7.812;2022-12-07T14:16:00;4.07;;;2.70;;
9958;SDS011;5019;48.012;7.812;2022-12-07T14:18:28;2.37;;;2.20;;
9958;SDS011;5019;48.012;7.812;2022-12-07T14:21:14;3.90;;;2.47;;
9958;SDS011;5019;48.012;7.812;2022-12-07T14:23:41;2.67;;;2.47;;
9958;SDS011;5019;48.012;7.812;2022-12-07T14:26:08;5.40;;;2.60;;
9958;SDS011;5019;48.012;7.812;2022-12-07T14:28:36;2.43;;;2.23;;
9958;SDS011;5019;48.012;7.812;2022-12-07T14:31:03;4.17;;;3.77;;
9958;SDS011;5019;48.012;7.812;2022-12-07T14:33:29;2.43;;;2.23;;
9958;SDS011;5019;48.012;7.812;2022-12-07T14:35:55;2.27;;;2.07;;
9958;SDS011;5019;48.012;7.812;2022-12-07T14:38:23;2.53;;;2.33;;
9958;SDS011;5019;48.012;7.812;2022-12-07T14:40:49;8.10;;;2.43;;
9958;SDS011;5019;48.012;7.812;2022-12-07T14:43:16;6.43;;;3.53;;
9958;SDS011;5019;48.012;7.812;2022-12-07T14:45:43;7.00;;;3.07;;
9958;SDS011;5019;48.012;7.812;2022-12-07T14:48:13;6.63;;;3.00;;
9958;SDS011;5019;48.012;7.812;2022-12-07T14:50:45;7.13;;;3.20;;
9958;SDS011;5019;48.012;7.812;2022-12-07T14:53:14;3.40;;;3.10;;
9958;SDS011;5019;48.012;7.812;2022-12-07T14:55:40;5.23;;;4.40;;
9958;SDS011;5019;48.012;7.812;2022-12-07T14:58:11;3.73;;;3.20;;
9958;SDS011;5019;48.012;7.812;2022-12-07T15:00:37;4.30;;;3.90;;
9958;SDS011;5019;48.012;7.812;2022-12-07T15:03:03;8.40;;;4.30;;
9958;SDS011;5019;48.012;7.812;2022-12-07T15:05:29;4.27;;;3.30;;
9958;SDS011;5019;48.012;7.812;2022-12-07T15:07:55;7.20;;;3.87;;
9958;SDS011;5019;48.012;7.812;2022-12-07T15:10:25;4.50;;;3.10;;
9958;SDS011;5019;48.012;7.812;2022-12-07T15:12:57;4.90;;;3.03;;
9958;SDS011;5019;48.012;7.812;2022-12-07T15:15:41;3.87;;;3.40;;
9958;SDS011;5019;48.012;7.812;2022-12-07T15:18:07;6.60;;;4.00;;
9958;SDS011;5019;48.012;7.812;2022-12-07T15:20:33;4.57;;;3.43;;
9958;SDS011;5019;48.012;7.812;2022-12-07T15:22:59;4.07;;;3.60;;
9958;SDS011;5019;48.012;7.812;2022-12-07T15:25:25;4.57;;;3.07;;
9958;SDS011;5019;48.012;7.812;2022-12-07T15:27:51;3.67;;;3.13;;
9958;SDS011;5019;48.012;7.812;2022-12-07T15:30:17;5.40;;;3.93;;
9958;SDS011;5019;48.012;7.812;2022-12-07T15:32:43;4.17;;;3.77;;
9958;SDS011;5019;48.012;7.812;2022-12-07T15:35:09;8.00;;;3.60;;
9958;SDS011;5019;48.012;7.812;2022-12-07T15:37:35;4.40;;;3.27;;
9958;SDS011;5019;48.012;7.812;2022-12-07T15:40:01;6.40;;;2.97;;
9958;SDS011;5019;48.012;7.812;2022-12-07T15:42:27;3.70;;;3.30;;
9958;SDS011;5019;48.012;7.812;2022-12-07T15:44:53;8.30;;;4.00;;
9958;SDS011;5019;48.012;7.812;2022-12-07T15:47:28;7.27;;;3.73;;
9958;SDS011;5019;48.012;7.812;2022-12-07T15:49:54;8.23;;;4.47;;
9958;SDS011;5019;48.012;7.812;2022-12-07T15:52:20;4.83;;;3.53;;
9958;SDS011;5019;48.012;7.812;2022-12-07T15:54:47;5.83;;;4.20;;
9958;SDS011;5019;48.012;7.812;2022-12-07T15:57:13;6.37;;;4.33;;
9958;SDS011;5019;48.012;7.812;2022-12-07T15:59:39;4.10;;;3.10;;
9958;SDS011;5019;48.012;7.812;2022-12-07T16:02:05;5.37;;;3.83;;
9958;SDS011;5019;48.012;7.812;2022-12-07T16:04:31;5.87;;;4.00;;
9958;SDS011;5019;48.012;7.812;2022-12-07T16:06:57;7.23;;;4.63;;
9958;SDS011;5019;48.012;7.812;2022-12-07T16:09:23;6.57;;;4.13;;
9958;SDS011;5019;48.012;7.812;2022-12-07T16:11:50;7.90;;;4.60;;
9958;SDS011;5019;48.012;7.812;2022-12-07T16:14:17;12.93;;;4.80;;
9958;SDS011;5019;48.012;7.812;2022-12-07T16:16:43;16.20;;;6.23;;
9958;SDS011;5019;48.012;7.812;2022-12-07T16:19:09;15.83;;;7.57;;
9958;SDS011;5019;48.012;7.812;2022-12-07T16:21:36;12.00;;;6.60;;
9958;SDS011;5019;48.012;7.812;2022-12-07T16:24:02;10.73;;;5.47;;
9958;SDS011;5019;48.012;7.812;2022-12-07T16:26:28;12.70;;;7.47;;
9958;SDS011;5019;48.012;7.812;2022-12-07T16:28:55;15.03;;;6.23;;
9958;SDS011;5019;48.012;7.812;2022-12-07T16:31:22;13.97;;;5.97;;
9958;SDS011;5019;48.012;7.812;2022-12-07T16:33:48;10.00;;;4.60;;
9958;SDS011;5019;48.012;7.812;2022-12-07T16:36:14;6.90;;;4.63;;
9958;SDS011;5019;48.012;7.812;2022-12-07T16:38:41;7.03;;;4.50;;
9958;SDS011;5019;48.012;7.812;2022-12-07T16:41:07;9.73;;;6.40;;
9958;SDS011;5019;48.012;7.812;2022-12-07T16:43:34;10.63;;;6.63;;
9958;SDS011;5019;48.012;7.812;2022-12-07T16:46:00;23.80;;;9.67;;
9958;SDS011;5019;48.012;7.812;2022-12-07T16:48:26;30.33;;;12.70;;
9958;SDS011;5019;48.012;7.812;2022-12-07T16:50:52;22.40;;;9.60;;
9958;SDS011;5019;48.012;7.812;2022-12-07T16:53:20;20.00;;;10.00;;
9958;SDS011;5019;48.012;7.812;2022-12-07T16:55:47;16.43;;;10.17;;
9958;SDS011;5019;48.012;7.812;2022-12-07T16:58:14;15.90;;;9.90;;
9958;SDS011;5019;48.012;7.812;2022-12-07T17:00:41;13.87;;;7.80;;
9958;SDS011;5019;48.012;7.812;2022-12-07T17:03:08;16.40;;;6.10;;
9958;SDS011;5019;48.012;7.812;2022-12-07T17:05:37;11.00;;;5.73;;